India Meteorological Department
Airport METARs
Date : 26-04-2019
Sl. # Airport METAR
1 Agartala VEAT 260430Z 00000KT 3500 HZ NSC 34/24 Q1009 NOSIG=
2 Ahmedabad VAAH 260430Z 34006KT 4000 FU NSC 36/20 Q1010 BECMG 5000=
3 Allahabad VEAB 260400Z 20005KT 6000 SKC 38/18 Q1007 NOSIG=
4 Amritsar VIAR 260430Z VRB02KT 6000 NSC 32/18 Q1010 NOSIG=
5 Aurangabad VAAU 260400Z 35003KT 5000 HZ NSC 37/09 Q1013 NOSIG=
6 Bangalore VOBL 260430Z 24007KT 190V290 9999 SCT015 28/21 Q1015 NOSIG=
7 Baroda VABO 260430Z 32006KT 6000 NSC 34/16 Q1009 NOSIG=
8 Bhopal VABP 260430Z 02011KT 6000 NSC 37/09 Q1012 NOSIG=
9 Bhubaneswar VEBS 260430Z 32007KT 4000 HZ FEW018 33/30 Q1008 NOSIG=
10 Bhuntar VIBR 260330Z 00000KT 6000 FEW030 18/13 Q1020=
11 Chennai VOMM 260430Z 22006KT 7000 NSC 34/23 Q1009 NOSIG=
12 Coimbatore VOCB 260430Z 26003KT 4000 BR FEW015 31/23 Q1012 BECMG 5000 HZ=
13 Colombo VCBI 260410Z 27006KT 9999 FEW018 30/24 Q1009 NOSIG=
14 Delhi VIDP 260430Z 33006KT 2200 HZ NSC 34/13 Q1010 NOSIG=
15 Dehradun VIDN 260400Z 21004KT 5000 HZ NSC 30/13 Q1011=
16 Gauhati VEGT 260430Z 27006KT 3000 HZ SCT020 BKN100 33/25 Q1009 NOSIG=
17 Gaya VEGY 260430Z 27006KT 3500 HZ NSC 38/20 Q1006 =
18 Gaggal VIGG 260400Z 14002KT 8000 FEW035 27/16 Q1016=
19 Fursatganj VERB 260400Z 00000KT 3500 HZ NSC 37/20 Q1005=
20 Hyderabad VOHS 260430Z 24007KT 6000 FEW020 36/16 Q1013 NOSIG=
21 Imphal VEIM 260300Z 23002KT 3000 HZ FEW008 25/18 Q1013 NOSIG=
22 Indore VAID 260300Z 32007KT 5000 HZ NSC 32/10 Q1012 NOSIG=
23 Jabalpur VAJB 260300Z 00000KT 4000 HZ SCT030 33/11 Q1010=
24 Jaipur VIJP 260430Z 27003KT 2000 DU NSC 36/11 Q1010 NOSIG=
25 Khajuraho VEKO 260300Z 25003KT 5000 HZ NSC 34/20 Q1008=
26 Kochi VOCI 260430Z 35007KT 5000 HZ SCT020 32/25 Q1009 NOSIG=
27 Kolkata VECC 260430Z 16008KT 4000 HZ FEW020 33/26 Q1008 NOSIG=
28 Kozhikode VOCL 260430Z 05003KT 8000 FEW015 33/26 Q1009 NOSIG=
29 Lucknow VILK 260430Z 00000KT 3000 HZ NSC 37/23 Q1007 NOSIG=
30 Madurai VOMD 260430Z 00000KT 6000 SCT018 34/22 Q1010 NOSIG=
31 Mohanbari VEMN 260430Z 02006KT 5000 HZ FEW100 33/20 Q1009 NOSIG=
32 Mumbai VABB 260430Z 29003KT 4000 FU FEW100 34/20 Q1010 NOSIG=
33 Nagpur VANP 260430Z 19007KT 5000 HZ NSC 40/11 Q1009 NOSIG=
34 Ozar VAOZ 260430Z VRB02KT 6000 BKN080 38/07 Q1013 NOSIG=
35 Pantnagar VIPT 260430Z VRB02KT 2500 HZ NSC 32/16 Q1008 =
36 Patna VEPT 260430Z 08006KT 5000 HZ NSC 34/22 Q1006 NOSIG=
37 Raipur VERP 260400Z 24009KT 5000 HZ NSC 36/17 Q1010 NOSIG=
38 Safdarjung VIDD 260430Z 02006KT 2700 HZ NSC 34/17 Q1009 NOSIG=
39 Shimla VISM 260430Z 00000KT 6000 NSC 24/11 Q1020=
40 Surat VASU 260430Z 36005KT 6000 NSC 34/15 Q1009=
41 Ranchi VERC 260430Z 22006KT 5000 HZ NSC 34/19 Q1011 NOSIG=
42 Trichy VOTR 260430Z 27005KT 6000 SCT016 33/25 Q1008 NOSIG=
43 Trivandrum VOTV 260430Z 03010KT 8000 FEW015 34/25 Q1008 NOSIG=
44 Udaipur VAUD 260430Z 32004KT 6000 NSC 37/12 Q1013 NOSIG=
45 Varanasi VEBN 260430Z 25003KT 3000 HZ NSC 36/21 Q1006 NOSIG=
46 Vizag VOVZ 260430Z 27008KT 4500 HZ NSC 34/25 Q1008 NOSIG=
47 Male VRMM 260400Z 30005KT 9999 FEW018 BKN270 31/25 Q1010 NOSIG=
48 Gan VRMG 260400Z 29009KT 9999 FEW018TCU 31/26 Q1011 NOSIG=
49 Kathmandu VNKT 260430Z NIL=
50 Dhaka VGHS 260430Z 16004KT 4000 HZ NSC 34/24 Q1009 NOSIG=
51 Colombo VCBI 260410Z 27006KT 9999 FEW018 30/24 Q1009 NOSIG=
52 Karachi OPKC 260425Z 28006KT 5000 HZ NSC 30/20 Q1011 NOSIG=
53 Lahore OPLA 260425Z 15004KT 6000 NSC 30/18 Q1011 RMK QFE985 RMK A29.84=
54 Leh VILH 260400Z VRB02KT 6000 CCHT FEW050 SCT070 09/-2 Q1032 NOSIG=
55 Sri Nagar VISR 260400Z VRB01KT 6000 FEW008 SCT012 BKN080 13/12 Q1026 NOSIG=
56 Jammu VIJU 260400Z 34008KT 6000 SKC 29/13 Q1011 NOSIG=
57 Jodhpur VIJO 260400Z 11003KT 5000 FU SKC 35/12 Q1011 NOSIG=
58 Jaisalmer VIJR 260400Z 10006KT 6000 SKC 35/17 Q1010 NOSIG=
59 Bhuj-Rudra VABJ 260400Z 30006KT 6000 SKC 33/17 Q1011 NOSIG=
60 Gorakhpur VEGK 260400Z 13005KT 6000 SKC 33/22 Q1007 NOSIG=
61 Agra VIAG 260400Z 33007KT 6000 SKC 34/13 Q1009 NOSIG=
62 Bagdogra VEBD 260400Z 07006KT 6000 FEW030 31/23 Q1009 NOSIG=
63 Gwalior VIGR 260400Z 27010KT 5000 DU SKC 35/14 Q1009 NOSIG=
64 Pune VAPO 260400Z 04003KT 6000 SKC 35/10 Q1015 NOSIG=
65 Chandigarh VICG 260400Z VRB01KT 6000 SKC 34/14 Q1010 NOSIG=
66 Jamnagar VAJM 260400Z 29007KT 6000 SKC 30/24 Q1010 NOSIG=

 

--- End of List ---